createdAt,value
2024-04-10T00:00:27.207Z,0.00
2024-04-10T00:01:27.199Z,0.00
2024-04-10T00:02:27.267Z,0.00
2024-04-10T00:03:27.239Z,0.00
2024-04-10T00:04:27.256Z,0.00
2024-04-10T00:05:27.366Z,0.00
2024-04-10T00:06:27.126Z,0.00
2024-04-10T00:07:27.151Z,0.00
2024-04-10T00:08:27.357Z,0.00
2024-04-10T00:09:27.092Z,0.00
2024-04-10T00:10:27.077Z,0.00
2024-04-10T00:11:27.213Z,0.00
2024-04-10T00:12:27.058Z,0.00
2024-04-10T00:13:27.068Z,0.00
2024-04-10T00:14:27.140Z,0.00
2024-04-10T00:15:27.031Z,0.00
2024-04-10T00:16:27.008Z,0.00
2024-04-10T00:17:27.079Z,0.00
2024-04-10T00:18:27.040Z,0.00
2024-04-10T00:19:27.079Z,0.00
2024-04-10T00:20:27.072Z,0.00
2024-04-10T00:21:26.958Z,0.00
2024-04-10T00:22:26.925Z,0.00
2024-04-10T00:23:27.251Z,0.00
2024-04-10T00:24:26.904Z,0.00
2024-04-10T00:25:26.912Z,0.00
2024-04-10T00:26:26.991Z,0.00
2024-04-10T00:27:26.881Z,0.00
2024-04-10T00:28:26.902Z,0.00
2024-04-10T00:29:26.994Z,0.00
2024-04-10T00:30:26.852Z,0.00
2024-04-10T00:31:26.854Z,0.00
2024-04-10T00:32:27.599Z,0.00
2024-04-10T00:33:26.887Z,0.00
2024-04-10T00:34:26.847Z,0.00
2024-04-10T00:35:26.974Z,0.00
2024-04-10T00:36:26.802Z,0.00
2024-04-10T00:37:26.783Z,0.00
2024-04-10T00:38:26.926Z,0.00
2024-04-10T00:39:26.765Z,0.00
2024-04-10T00:40:26.753Z,0.00
2024-04-10T00:41:26.799Z,0.00
2024-04-10T00:42:26.754Z,0.00
2024-04-10T00:43:26.714Z,0.00
2024-04-10T00:44:26.755Z,0.00
2024-04-10T00:45:26.697Z,0.00
2024-04-10T00:46:26.690Z,0.00
2024-04-10T00:47:26.776Z,0.00
2024-04-10T00:48:26.858Z,0.00
2024-04-10T00:49:26.652Z,0.00
2024-04-10T00:50:26.790Z,0.00
2024-04-10T00:51:26.621Z,0.00
2024-04-10T00:52:26.634Z,0.00
2024-04-10T00:53:26.698Z,0.00
2024-04-10T00:54:26.620Z,0.00
2024-04-10T00:55:26.583Z,0.00
2024-04-10T00:56:26.745Z,0.00
2024-04-10T00:57:26.567Z,0.00
2024-04-10T00:58:26.582Z,0.00
2024-04-10T00:59:26.574Z,0.00
2024-04-10T01:00:26.536Z,0.00
2024-04-10T01:01:26.596Z,0.00
2024-04-10T01:02:26.697Z,0.00
2024-04-10T01:03:26.613Z,0.00
2024-04-10T01:04:26.634Z,0.00
2024-04-10T01:05:26.549Z,0.00
2024-04-10T01:06:26.474Z,0.00
2024-04-10T01:07:26.483Z,0.00
2024-04-10T01:08:26.543Z,0.00
2024-04-10T01:09:26.433Z,0.00
2024-04-10T01:10:26.504Z,0.00
2024-04-10T01:11:26.466Z,0.00
2024-04-10T01:12:26.452Z,0.00
2024-04-10T01:13:26.421Z,0.00
2024-04-10T01:14:26.408Z,0.00
2024-04-10T01:15:26.410Z,0.00
2024-04-10T01:16:26.397Z,0.00
2024-04-10T01:17:26.471Z,0.00
2024-04-10T01:18:26.451Z,0.00
2024-04-10T01:19:26.368Z,0.00
2024-04-10T01:20:26.397Z,0.00
2024-04-10T01:21:26.312Z,0.00
2024-04-10T01:22:26.299Z,0.00
2024-04-10T01:23:26.493Z,0.00
2024-04-10T01:24:26.284Z,0.00
2024-04-10T01:25:26.252Z,0.00
2024-04-10T01:26:26.334Z,0.00
2024-04-10T01:27:26.235Z,0.00
2024-04-10T01:28:26.240Z,0.00
2024-04-10T01:29:26.347Z,0.00
2024-04-10T01:30:26.198Z,0.00
2024-04-10T01:31:26.183Z,0.00
2024-04-10T01:32:26.260Z,0.00
2024-04-10T01:33:26.417Z,0.00
2024-04-10T01:34:26.257Z,0.00
2024-04-10T01:35:26.249Z,0.00
2024-04-10T01:36:26.149Z,0.00
2024-04-10T01:37:26.129Z,0.00
2024-04-10T01:38:26.242Z,0.00
2024-04-10T01:39:26.121Z,0.00
2024-04-10T01:40:26.089Z,0.00
2024-04-10T01:41:26.154Z,0.00
2024-04-10T01:42:26.073Z,0.00
2024-04-10T01:43:26.084Z,0.00
2024-04-10T01:44:26.122Z,0.00
2024-04-10T01:45:26.040Z,0.00
2024-04-10T01:46:26.026Z,0.00
2024-04-10T01:47:26.084Z,0.00
2024-04-10T01:48:26.263Z,0.00
2024-04-10T01:49:26.051Z,0.00
2024-04-10T01:50:26.285Z,0.00
2024-04-10T01:51:25.989Z,0.00
2024-04-10T01:52:27.359Z,0.00
2024-04-10T01:53:26.479Z,0.00
2024-04-10T01:54:26.154Z,0.00
2024-04-10T01:55:26.280Z,0.00
2024-04-10T01:56:26.553Z,0.00
2024-04-10T01:57:25.923Z,0.00
2024-04-10T01:58:25.908Z,0.00
2024-04-10T01:59:26.140Z,0.00
2024-04-10T02:00:25.909Z,0.00
2024-04-10T02:01:25.882Z,0.00
2024-04-10T02:02:25.953Z,0.00
2024-04-10T02:03:26.001Z,0.00
2024-04-10T02:04:25.906Z,0.00
2024-04-10T02:05:25.881Z,0.00
2024-04-10T02:06:25.859Z,0.00
2024-04-10T02:07:25.794Z,0.00
2024-04-10T02:08:25.808Z,0.00
2024-04-10T02:09:25.769Z,0.00
2024-04-10T02:10:25.779Z,0.00
2024-04-10T02:11:25.891Z,0.00
2024-04-10T02:12:25.756Z,0.00
2024-04-10T02:13:25.751Z,0.00
2024-04-10T02:14:25.912Z,0.00
2024-04-10T02:15:25.713Z,0.00
2024-04-10T02:16:25.778Z,0.00
2024-04-10T02:17:25.829Z,0.00
2024-04-10T02:18:25.782Z,0.00
2024-04-10T02:19:25.665Z,0.00
2024-04-10T02:20:25.691Z,0.00
2024-04-10T02:21:25.676Z,0.00
2024-04-10T02:22:25.675Z,0.00
2024-04-10T02:23:25.734Z,0.00
2024-04-10T02:24:25.643Z,0.00
2024-04-10T02:25:25.623Z,0.00
2024-04-10T02:26:25.651Z,0.00
2024-04-10T02:27:25.594Z,0.00
2024-04-10T02:28:25.588Z,0.00
2024-04-10T02:29:25.689Z,0.00
2024-04-10T02:30:25.576Z,0.00
2024-04-10T02:31:25.560Z,0.00
2024-04-10T02:32:25.739Z,0.00
2024-04-10T02:33:25.643Z,0.00
2024-04-10T02:34:25.606Z,0.00
2024-04-10T02:35:25.575Z,0.00
2024-04-10T02:36:25.492Z,0.00
2024-04-10T02:37:25.491Z,0.00
2024-04-10T02:38:25.579Z,0.00
2024-04-10T02:39:25.468Z,0.00
2024-04-10T02:40:25.472Z,0.00
2024-04-10T02:41:25.557Z,0.00
2024-04-10T02:42:25.433Z,0.00
2024-04-10T02:43:25.415Z,0.00
2024-04-10T02:44:25.540Z,0.00
2024-04-10T02:45:25.403Z,0.00
2024-04-10T02:46:25.431Z,0.00
2024-04-10T02:47:25.544Z,0.00
2024-04-10T02:48:25.422Z,0.00
2024-04-10T02:49:25.351Z,0.00
2024-04-10T02:50:25.413Z,0.00
2024-04-10T02:51:25.341Z,0.00
2024-04-10T02:52:25.338Z,0.00
2024-04-10T02:53:25.488Z,0.00
2024-04-10T02:54:25.310Z,0.00
2024-04-10T02:55:25.363Z,0.00
2024-04-10T02:56:25.345Z,0.00
2024-04-10T02:57:25.281Z,0.00
2024-04-10T02:58:25.263Z,0.00
2024-04-10T02:59:25.291Z,0.00
2024-04-10T03:00:25.239Z,0.00
2024-04-10T03:01:25.222Z,0.00
2024-04-10T03:02:25.325Z,0.00
2024-04-10T03:03:25.298Z,0.00
2024-04-10T03:04:25.313Z,0.00
2024-04-10T03:05:25.328Z,0.00
2024-04-10T03:06:25.306Z,0.00
2024-04-10T03:07:25.191Z,0.00
2024-04-10T03:08:25.189Z,0.00
2024-04-10T03:09:25.181Z,0.00
2024-04-10T03:10:25.124Z,0.00
2024-04-10T03:11:25.185Z,0.00
2024-04-10T03:12:25.140Z,0.00
2024-04-10T03:13:25.083Z,0.00
2024-04-10T03:14:25.136Z,0.00
2024-04-10T03:15:25.066Z,0.00
2024-04-10T03:16:25.118Z,0.00
2024-04-10T03:17:25.170Z,0.00
2024-04-10T03:18:25.199Z,0.00
2024-04-10T03:19:25.044Z,0.00
2024-04-10T03:20:25.091Z,0.00
2024-04-10T03:21:25.032Z,0.00
2024-04-10T03:22:25.017Z,0.00
2024-04-10T03:23:25.022Z,0.00
2024-04-10T03:24:25.040Z,0.00
2024-04-10T03:25:24.998Z,0.00
2024-04-10T03:26:25.026Z,0.00
2024-04-10T03:27:24.979Z,0.00
2024-04-10T03:28:24.983Z,0.00
2024-04-10T03:29:25.015Z,0.00
2024-04-10T03:30:24.945Z,0.00
2024-04-10T03:31:24.926Z,0.00
2024-04-10T03:32:24.983Z,0.00
2024-04-10T03:33:24.994Z,0.00
2024-04-10T03:34:24.984Z,0.00
2024-04-10T03:35:24.907Z,0.00
2024-04-10T03:36:24.884Z,0.00
2024-04-10T03:37:24.986Z,0.00
2024-04-10T03:38:24.903Z,0.00
2024-04-10T03:39:24.836Z,0.00
2024-04-10T03:40:24.830Z,0.00
2024-04-10T03:41:24.877Z,0.00
2024-04-10T03:42:24.805Z,0.00
2024-04-10T03:43:24.880Z,0.00
2024-04-10T03:44:24.873Z,0.00
2024-04-10T03:45:24.804Z,0.00
2024-04-10T03:46:24.789Z,0.00
2024-04-10T03:47:24.934Z,0.00
2024-04-10T03:48:24.998Z,0.00
2024-04-10T03:49:24.732Z,0.00
2024-04-10T03:50:24.839Z,0.00
2024-04-10T03:51:24.727Z,0.00
2024-04-10T03:52:24.710Z,0.00
2024-04-10T03:53:24.715Z,0.00
2024-04-10T03:54:24.719Z,0.00
2024-04-10T03:55:24.697Z,0.00
2024-04-10T03:56:24.725Z,0.00
2024-04-10T03:57:24.655Z,0.00
2024-04-10T03:58:24.620Z,0.00
2024-04-10T03:59:24.670Z,0.00
2024-04-10T04:00:24.598Z,0.00
2024-04-10T04:01:24.659Z,0.00
2024-04-10T04:02:24.710Z,0.00
2024-04-10T04:03:24.654Z,0.00
2024-04-10T04:04:24.603Z,0.00
2024-04-10T04:05:24.663Z,0.00
2024-04-10T04:06:24.562Z,0.00
2024-04-10T04:07:24.577Z,0.00
2024-04-10T04:08:24.604Z,0.00
2024-04-10T04:09:24.524Z,0.00
2024-04-10T04:10:24.518Z,0.00
2024-04-10T04:11:24.586Z,0.00
2024-04-10T04:12:25.271Z,0.00
2024-04-10T04:13:24.496Z,0.00
2024-04-10T04:14:24.513Z,0.00
2024-04-10T04:15:24.458Z,4.00
2024-04-10T04:16:24.521Z,4.00
2024-04-10T04:17:24.500Z,4.00
2024-04-10T04:18:24.486Z,4.00
2024-04-10T04:19:24.418Z,0.00
2024-04-10T04:20:24.443Z,4.00
2024-04-10T04:21:24.388Z,4.00
2024-04-10T04:22:24.374Z,4.00
2024-04-10T04:23:24.434Z,4.00
2024-04-10T04:24:25.800Z,8.00
2024-04-10T04:25:24.358Z,4.00
2024-04-10T04:26:24.417Z,8.00
2024-04-10T04:27:24.327Z,8.00
2024-04-10T04:28:25.338Z,12.00
2024-04-10T04:29:24.319Z,12.00
2024-04-10T04:30:25.029Z,12.00
2024-04-10T04:31:24.297Z,16.00
2024-04-10T04:32:25.198Z,16.00
2024-04-10T04:33:24.466Z,20.00
2024-04-10T04:34:25.067Z,24.00
2024-04-10T04:35:24.300Z,28.00
2024-04-10T04:36:24.407Z,28.00
2024-04-10T04:37:24.230Z,32.00
2024-04-10T04:38:25.094Z,40.00
2024-04-10T04:39:24.190Z,48.00
2024-04-10T04:40:24.934Z,56.00
2024-04-10T04:41:24.234Z,56.00
2024-04-10T04:42:24.891Z,64.00
2024-04-10T04:43:24.469Z,72.00
2024-04-10T04:44:24.212Z,80.00
2024-04-10T04:45:24.187Z,88.00
2024-04-10T04:46:24.418Z,96.00
2024-04-10T04:47:24.229Z,100.00
2024-04-10T04:48:24.299Z,112.00
2024-04-10T04:49:24.110Z,120.00
2024-04-10T04:50:24.161Z,128.00
2024-04-10T04:51:24.083Z,140.00
2024-04-10T04:52:24.050Z,148.00
2024-04-10T04:53:24.132Z,160.00
2024-04-10T04:54:24.029Z,172.00
2024-04-10T04:55:24.028Z,188.00
2024-04-10T04:56:24.042Z,208.00
2024-04-10T04:57:24.001Z,224.00
2024-04-10T04:58:27.193Z,244.00
2024-04-10T04:59:25.004Z,264.00
2024-04-10T05:00:23.980Z,276.00
2024-04-10T05:01:23.993Z,292.00
2024-04-10T05:02:24.088Z,308.00
2024-04-10T05:03:24.089Z,324.00
2024-04-10T05:04:23.962Z,344.00
2024-04-10T05:05:23.976Z,360.00
2024-04-10T05:06:23.890Z,380.00
2024-04-10T05:07:23.890Z,404.00
2024-04-10T05:08:23.917Z,424.00
2024-04-10T05:09:23.885Z,444.00
2024-04-10T05:10:23.848Z,464.00
2024-04-10T05:11:23.950Z,488.00
2024-04-10T05:12:23.969Z,508.00
2024-04-10T05:13:23.969Z,536.00
2024-04-10T05:14:24.063Z,560.00
2024-04-10T05:15:24.047Z,580.00
2024-04-10T05:16:23.899Z,600.00
2024-04-10T05:17:23.850Z,608.00
2024-04-10T05:18:23.803Z,620.00
2024-04-10T05:19:23.769Z,632.00
2024-04-10T05:20:24.348Z,656.00
2024-04-10T05:21:23.755Z,684.00
2024-04-10T05:22:23.727Z,704.00
2024-04-10T05:23:23.768Z,724.00
2024-04-10T05:24:23.702Z,740.00
2024-04-10T05:25:23.714Z,756.00
2024-04-10T05:26:23.818Z,764.00
2024-04-10T05:27:23.691Z,768.00
2024-04-10T05:28:23.663Z,768.00
2024-04-10T05:29:23.730Z,772.00
2024-04-10T05:30:23.679Z,776.00
2024-04-10T05:31:23.637Z,784.00
2024-04-10T05:32:23.694Z,800.00
2024-04-10T05:33:23.668Z,820.00
2024-04-10T05:34:23.788Z,840.00
2024-04-10T05:35:23.619Z,856.00
2024-04-10T05:36:23.618Z,872.00
2024-04-10T05:37:23.579Z,892.00
2024-04-10T05:38:23.606Z,908.00
2024-04-10T05:39:23.550Z,924.00
2024-04-10T05:40:23.639Z,940.00
2024-04-10T05:41:23.608Z,968.00
2024-04-10T05:42:23.508Z,996.00
2024-04-10T05:43:23.509Z,1036.00
2024-04-10T05:44:23.541Z,1084.00
2024-04-10T05:45:23.477Z,1136.00
2024-04-10T05:46:23.517Z,1196.00
2024-04-10T05:47:23.521Z,1244.00
2024-04-10T05:48:23.559Z,1292.00
2024-04-10T05:49:23.522Z,1332.00
2024-04-10T05:50:23.574Z,1376.00
2024-04-10T05:51:23.453Z,1404.00
2024-04-10T05:52:23.424Z,1424.00
2024-04-10T05:53:23.421Z,1436.00
2024-04-10T05:54:23.397Z,1444.00
2024-04-10T05:55:23.380Z,1456.00
2024-04-10T05:56:23.408Z,1476.00
2024-04-10T05:57:23.350Z,1492.00
2024-04-10T05:58:23.326Z,1508.00
2024-04-10T05:59:23.355Z,1512.00
2024-04-10T06:00:23.319Z,1516.00
2024-04-10T06:01:23.344Z,1520.00
2024-04-10T06:02:23.448Z,1532.00
2024-04-10T06:03:23.454Z,1544.00
2024-04-10T06:04:23.304Z,1564.00
2024-04-10T06:05:23.331Z,1568.00
2024-04-10T06:06:23.297Z,1568.00
2024-04-10T06:07:23.271Z,1568.00
2024-04-10T06:08:23.277Z,1572.00
2024-04-10T06:09:23.232Z,1568.00
2024-04-10T06:10:23.255Z,1556.00
2024-04-10T06:11:23.288Z,1532.00
2024-04-10T06:12:23.332Z,1500.00
2024-04-10T06:13:23.213Z,1472.00
2024-04-10T06:14:23.216Z,1440.00
2024-04-10T06:15:23.198Z,1408.00
2024-04-10T06:16:23.209Z,1376.00
2024-04-10T06:17:23.366Z,1344.00
2024-04-10T06:18:23.172Z,1320.00
2024-04-10T06:19:23.130Z,1308.00
2024-04-10T06:20:23.199Z,1304.00
2024-04-10T06:21:23.122Z,1316.00
2024-04-10T06:22:23.948Z,1344.00
2024-04-10T06:23:23.135Z,1388.00
2024-04-10T06:24:23.061Z,1456.00
2024-04-10T06:25:23.061Z,1532.00
2024-04-10T06:26:23.162Z,1604.00
2024-04-10T06:27:23.026Z,1672.00
2024-04-10T06:28:23.015Z,1724.00
2024-04-10T06:29:23.099Z,1768.00
2024-04-10T06:30:23.005Z,1800.00
2024-04-10T06:31:22.984Z,1824.00
2024-04-10T06:32:23.147Z,1844.00
2024-04-10T06:33:23.110Z,1872.00
2024-04-10T06:34:23.091Z,1896.00
2024-04-10T06:35:22.966Z,1932.00
2024-04-10T06:36:22.946Z,1976.00
2024-04-10T06:37:22.939Z,2028.00
2024-04-10T06:38:22.966Z,2084.00
2024-04-10T06:39:22.946Z,2132.00
2024-04-10T06:40:22.902Z,2180.00
2024-04-10T06:41:22.985Z,2220.00
2024-04-10T06:42:22.867Z,2248.00
2024-04-10T06:43:22.859Z,2288.00
2024-04-10T06:44:22.870Z,2328.00
2024-04-10T06:45:22.838Z,2364.00
2024-04-10T06:46:22.870Z,2400.00
2024-04-10T06:47:23.035Z,2436.00
2024-04-10T06:48:23.019Z,2468.00
2024-04-10T06:49:22.879Z,2500.00
2024-04-10T06:50:22.811Z,2528.00
2024-04-10T06:51:22.781Z,2560.00
2024-04-10T06:52:22.749Z,2604.00
2024-04-10T06:53:22.780Z,2660.00
2024-04-10T06:54:22.733Z,2708.00
2024-04-10T06:55:22.719Z,2768.00
2024-04-10T06:56:22.766Z,2816.00
2024-04-10T06:57:22.707Z,2860.00
2024-04-10T06:58:22.682Z,2888.00
2024-04-10T06:59:22.721Z,2904.00
2024-04-10T07:00:22.662Z,2916.00
2024-04-10T07:01:22.712Z,2932.00
2024-04-10T07:02:22.752Z,2960.00
2024-04-10T07:03:22.709Z,2988.00
2024-04-10T07:04:22.665Z,3012.00
2024-04-10T07:05:22.734Z,3028.00
2024-04-10T07:06:22.620Z,3032.00
2024-04-10T07:07:22.623Z,3048.00
2024-04-10T07:08:22.633Z,3076.00
2024-04-10T07:09:22.585Z,3096.00
2024-04-10T07:10:22.566Z,3104.00
2024-04-10T07:11:23.054Z,3112.00
2024-04-10T07:12:22.631Z,3112.00
2024-04-10T07:13:22.537Z,3108.00
2024-04-10T07:14:22.565Z,3104.00
2024-04-10T07:15:22.541Z,3088.00
2024-04-10T07:16:22.567Z,3064.00
2024-04-10T07:17:22.632Z,3036.00
2024-04-10T07:18:22.519Z,3020.00
2024-04-10T07:19:22.488Z,3004.00
2024-04-10T07:20:22.475Z,2988.00
2024-04-10T07:21:22.454Z,2976.00
2024-04-10T07:22:22.476Z,2968.00
2024-04-10T07:23:22.474Z,2956.00
2024-04-10T07:24:22.424Z,2936.00
2024-04-10T07:25:22.399Z,2916.00
2024-04-10T07:26:22.543Z,2900.00
2024-04-10T07:27:22.386Z,2884.00
2024-04-10T07:28:22.380Z,2876.00
2024-04-10T07:29:22.415Z,2888.00
2024-04-10T07:30:22.350Z,2912.00
2024-04-10T07:31:22.341Z,2940.00
2024-04-10T07:32:22.419Z,2972.00
2024-04-10T07:33:22.446Z,2996.00
2024-04-10T07:34:22.504Z,3024.00
2024-04-10T07:35:22.363Z,3040.00
2024-04-10T07:36:22.277Z,3060.00
2024-04-10T07:37:22.302Z,3084.00
2024-04-10T07:38:22.319Z,3108.00
2024-04-10T07:39:22.266Z,3152.00
2024-04-10T07:40:22.250Z,3196.00
2024-04-10T07:41:22.277Z,3248.00
2024-04-10T07:42:22.221Z,3300.00
2024-04-10T07:43:22.270Z,3348.00
2024-04-10T07:44:22.312Z,3384.00
2024-04-10T07:45:22.200Z,3424.00
2024-04-10T07:46:22.187Z,3448.00
2024-04-10T07:47:22.240Z,3460.00
2024-04-10T07:48:22.307Z,3460.00
2024-04-10T07:49:22.304Z,3452.00
2024-04-10T07:50:22.226Z,3436.00
2024-04-10T07:51:22.125Z,3416.00
2024-04-10T07:52:22.111Z,3408.00
2024-04-10T07:53:22.122Z,3404.00
2024-04-10T07:54:22.097Z,3412.00
2024-04-10T07:55:22.067Z,3436.00
2024-04-10T07:56:22.185Z,3460.00
2024-04-10T07:57:22.044Z,3476.00
2024-04-10T07:58:22.053Z,3448.00
2024-04-10T07:59:22.095Z,3380.00
2024-04-10T08:00:22.026Z,3284.00
2024-04-10T08:01:22.109Z,3168.00
2024-04-10T08:02:22.067Z,3040.00
2024-04-10T08:03:22.062Z,3024.00
2024-04-10T08:04:22.043Z,3020.00
2024-04-10T08:05:22.011Z,3416.00
2024-04-10T08:06:21.965Z,3588.00
2024-04-10T08:07:21.983Z,3728.00
2024-04-10T08:08:21.977Z,3360.00
2024-04-10T08:09:21.922Z,3356.00
2024-04-10T08:10:21.935Z,3652.00
2024-04-10T08:11:22.003Z,3836.00
2024-04-10T08:12:22.070Z,3944.00
2024-04-10T08:13:21.888Z,3504.00
2024-04-10T08:14:21.902Z,3300.00
2024-04-10T08:15:21.866Z,3016.00
2024-04-10T08:16:22.128Z,3172.00
2024-04-10T08:17:21.869Z,3260.00
2024-04-10T08:18:21.892Z,2792.00
2024-04-10T08:19:21.817Z,2600.00
2024-04-10T08:20:21.862Z,2468.00
2024-04-10T08:21:21.800Z,2420.00
2024-04-10T08:22:21.790Z,2432.00
2024-04-10T08:23:23.318Z,2696.00
2024-04-10T08:24:21.789Z,2728.00
2024-04-10T08:25:21.763Z,2656.00
2024-04-10T08:26:22.062Z,2820.00
2024-04-10T08:27:21.737Z,2688.00
2024-04-10T08:28:21.722Z,2700.00
2024-04-10T08:29:21.816Z,2708.00
2024-04-10T08:30:21.727Z,2448.00
2024-04-10T08:31:21.693Z,2352.00
2024-04-10T08:32:21.708Z,2264.00
2024-04-10T08:33:21.792Z,2212.00
2024-04-10T08:34:21.868Z,2256.00
2024-04-10T08:35:21.708Z,2208.00
2024-04-10T08:36:21.728Z,2132.00
2024-04-10T08:37:21.647Z,2116.00
2024-04-10T08:38:21.662Z,2264.00
2024-04-10T08:39:21.639Z,2220.00
2024-04-10T08:40:21.666Z,2188.00
2024-04-10T08:41:21.588Z,2124.00
2024-04-10T08:42:21.606Z,2172.00
2024-04-10T08:43:21.676Z,2116.00
2024-04-10T08:44:21.580Z,2188.00
2024-04-10T08:45:21.554Z,2200.00
2024-04-10T08:46:21.536Z,2172.00
2024-04-10T08:47:21.648Z,2168.00
2024-04-10T08:48:21.588Z,2228.00
2024-04-10T08:49:21.485Z,2348.00
2024-04-10T08:50:21.491Z,2396.00
2024-04-10T08:51:21.492Z,2380.00
2024-04-10T08:52:21.459Z,2396.00
2024-04-10T08:53:21.446Z,2424.00
2024-04-10T08:54:21.489Z,2532.00
2024-04-10T08:55:21.451Z,2840.00
2024-04-10T08:56:21.424Z,3348.00
2024-04-10T08:57:21.486Z,3104.00
2024-04-10T08:58:21.395Z,2996.00
2024-04-10T08:59:21.400Z,3092.00
2024-04-10T09:00:21.445Z,3240.00
2024-04-10T09:01:21.430Z,3552.00
2024-04-10T09:02:21.366Z,4460.00
2024-04-10T09:03:21.586Z,5964.00
2024-04-10T09:04:21.493Z,6156.00
2024-04-10T09:05:21.373Z,5624.00
2024-04-10T09:06:21.395Z,4912.00
2024-04-10T09:07:21.305Z,5204.00
2024-04-10T09:08:21.336Z,4528.00
2024-04-10T09:09:21.347Z,3724.00
2024-04-10T09:10:21.270Z,3456.00
2024-04-10T09:11:21.289Z,2816.00
2024-04-10T09:12:21.246Z,2700.00
2024-04-10T09:13:21.218Z,2956.00
2024-04-10T09:14:21.228Z,3852.00
2024-04-10T09:15:21.204Z,5160.00
2024-04-10T09:16:21.247Z,5004.00
2024-04-10T09:17:21.270Z,4536.00
2024-04-10T09:18:21.182Z,4448.00
2024-04-10T09:19:21.372Z,4848.00
2024-04-10T09:20:21.267Z,5072.00
2024-04-10T09:21:21.141Z,5232.00
2024-04-10T09:22:21.142Z,5308.00
2024-04-10T09:23:21.133Z,5380.00
2024-04-10T09:24:21.342Z,5320.00
2024-04-10T09:25:21.094Z,5000.00
2024-04-10T09:26:21.142Z,4068.00
2024-04-10T09:27:21.310Z,4124.00
2024-04-10T09:28:21.074Z,4240.00
2024-04-10T09:29:21.166Z,4852.00
2024-04-10T09:30:21.362Z,4300.00
2024-04-10T09:31:21.032Z,4232.00
2024-04-10T09:32:21.210Z,3780.00
2024-04-10T09:33:21.230Z,3916.00
2024-04-10T09:34:21.496Z,3208.00
2024-04-10T09:35:21.345Z,2772.00
2024-04-10T09:36:20.991Z,3164.00
2024-04-10T09:37:20.981Z,3684.00
2024-04-10T09:38:20.976Z,4100.00
2024-04-10T09:39:21.236Z,4568.00
2024-04-10T09:40:20.951Z,4976.00
2024-04-10T09:41:20.948Z,5628.00
2024-04-10T09:42:20.940Z,6708.00
2024-04-10T09:43:20.925Z,7132.00
2024-04-10T09:44:20.952Z,6444.00
2024-04-10T09:45:20.928Z,5876.00
2024-04-10T09:46:20.894Z,5264.00
2024-04-10T09:47:20.946Z,4716.00
2024-04-10T09:48:20.946Z,4820.00
2024-04-10T09:49:20.891Z,4752.00
2024-04-10T09:50:20.973Z,4532.00
2024-04-10T09:51:20.824Z,4072.00
2024-04-10T09:52:20.804Z,3552.00
2024-04-10T09:53:20.949Z,3248.00
2024-04-10T09:54:20.798Z,3156.00
2024-04-10T09:55:20.770Z,3012.00
2024-04-10T09:56:20.799Z,3108.00
2024-04-10T09:57:20.762Z,3332.00
2024-04-10T09:58:20.770Z,3852.00
2024-04-10T09:59:20.809Z,4416.00
2024-04-10T10:00:20.740Z,4888.00
2024-04-10T10:01:20.765Z,5320.00
2024-04-10T10:02:21.190Z,6104.00
2024-04-10T10:03:20.862Z,6984.00
2024-04-10T10:04:20.740Z,8688.00
2024-04-10T10:05:20.785Z,8768.00
2024-04-10T10:06:20.701Z,7740.00
2024-04-10T10:07:20.649Z,7248.00
2024-04-10T10:08:20.724Z,6228.00
2024-04-10T10:09:20.617Z,5396.00
2024-04-10T10:10:20.620Z,5156.00
2024-04-10T10:11:20.730Z,5104.00
2024-04-10T10:12:20.629Z,4936.00
2024-04-10T10:13:20.573Z,4552.00
2024-04-10T10:14:20.604Z,4456.00
2024-04-10T10:15:20.644Z,4500.00
2024-04-10T10:16:20.582Z,4500.00
2024-04-10T10:17:20.538Z,4352.00
2024-04-10T10:18:24.151Z,4120.00
2024-04-10T10:19:21.788Z,4040.00
2024-04-10T10:20:20.719Z,4052.00
2024-04-10T10:21:20.509Z,4052.00
2024-04-10T10:22:20.494Z,3912.00
2024-04-10T10:23:20.531Z,3808.00
2024-04-10T10:24:20.460Z,3688.00
2024-04-10T10:25:20.481Z,3568.00
2024-04-10T10:26:20.499Z,3444.00
2024-04-10T10:27:20.444Z,3444.00
2024-04-10T10:28:20.464Z,3604.00
2024-04-10T10:29:20.834Z,3656.00
2024-04-10T10:30:20.475Z,3712.00
2024-04-10T10:31:20.415Z,3924.00
2024-04-10T10:32:20.470Z,4604.00
2024-04-10T10:33:20.558Z,4972.00
2024-04-10T10:34:20.438Z,5120.00
2024-04-10T10:35:20.468Z,4968.00
2024-04-10T10:36:20.410Z,4836.00
2024-04-10T10:37:20.327Z,4732.00
2024-04-10T10:38:20.376Z,4548.00
2024-04-10T10:39:20.312Z,4336.00
2024-04-10T10:40:20.287Z,4392.00
2024-04-10T10:41:20.328Z,4660.00
2024-04-10T10:42:20.280Z,5180.00
2024-04-10T10:43:20.264Z,5804.00
2024-04-10T10:44:20.347Z,6512.00
2024-04-10T10:45:20.228Z,7088.00
2024-04-10T10:46:20.249Z,7772.00
2024-04-10T10:47:20.300Z,7864.00
2024-04-10T10:48:20.363Z,7848.00
2024-04-10T10:49:20.215Z,7980.00
2024-04-10T10:50:20.244Z,7944.00
2024-04-10T10:51:20.184Z,7504.00
2024-04-10T10:52:20.156Z,7388.00
2024-04-10T10:53:20.189Z,7492.00
2024-04-10T10:54:20.145Z,8300.00
2024-04-10T10:55:20.140Z,8992.00
2024-04-10T10:56:20.148Z,9832.00
2024-04-10T10:57:20.136Z,9620.00
2024-04-10T10:58:20.100Z,9640.00
2024-04-10T10:59:20.112Z,9396.00
2024-04-10T11:00:20.083Z,9088.00
2024-04-10T11:01:20.194Z,8640.00
2024-04-10T11:02:20.174Z,8440.00
2024-04-10T11:03:24.945Z,8268.00
2024-04-10T11:04:21.225Z,8216.00
2024-04-10T11:05:20.301Z,8300.00
2024-04-10T11:06:20.035Z,8416.00
2024-04-10T11:07:20.000Z,8452.00
2024-04-10T11:08:20.018Z,8404.00
2024-04-10T11:09:19.985Z,8220.00
2024-04-10T11:10:19.962Z,7684.00
2024-04-10T11:11:20.111Z,7804.00
2024-04-10T11:12:20.053Z,7776.00
2024-04-10T11:13:19.958Z,7988.00
2024-04-10T11:14:19.962Z,8040.00
2024-04-10T11:15:19.919Z,8032.00
2024-04-10T11:16:19.947Z,8148.00
2024-04-10T11:17:19.914Z,7972.00
2024-04-10T11:18:20.125Z,8032.00
2024-04-10T11:20:19.920Z,7444.00
2024-04-10T11:21:19.847Z,7420.00
2024-04-10T11:22:19.846Z,6820.00
2024-04-10T11:23:19.901Z,5872.00
2024-04-10T11:24:19.820Z,5704.00
2024-04-10T11:25:19.817Z,5804.00
2024-04-10T11:26:19.811Z,5476.00
2024-04-10T11:27:19.819Z,5348.00
2024-04-10T11:28:19.789Z,5132.00
2024-04-10T11:29:19.792Z,4928.00
2024-04-10T11:30:19.751Z,5264.00
2024-04-10T11:31:19.756Z,6620.00
2024-04-10T11:32:19.896Z,7012.00
2024-04-10T11:33:19.945Z,7240.00
2024-04-10T11:34:20.049Z,7432.00
2024-04-10T11:35:19.728Z,7596.00
2024-04-10T11:36:19.701Z,7548.00
2024-04-10T11:37:19.694Z,7668.00
2024-04-10T11:38:19.712Z,8172.00
2024-04-10T11:39:19.653Z,8440.00
2024-04-10T11:40:19.654Z,8440.00
2024-04-10T11:41:19.712Z,7956.00
2024-04-10T11:42:19.643Z,5412.00
2024-04-10T11:43:19.605Z,5332.00
2024-04-10T11:44:19.651Z,7448.00
2024-04-10T11:45:19.585Z,7472.00
2024-04-10T11:46:19.604Z,7512.00
2024-04-10T11:47:19.784Z,7708.00
2024-04-10T11:48:19.670Z,8268.00
2024-04-10T11:49:19.608Z,8820.00
2024-04-10T11:50:19.573Z,9360.00
2024-04-10T11:51:19.523Z,9988.00
2024-04-10T11:52:19.492Z,9988.00
2024-04-10T11:53:19.550Z,10008.00
2024-04-10T11:54:19.642Z,10344.00
2024-04-10T11:55:19.536Z,10384.00
2024-04-10T11:56:19.495Z,10272.00
2024-04-10T11:57:19.471Z,10016.00
2024-04-10T11:58:19.451Z,10044.00
2024-04-10T11:59:19.445Z,10112.00
2024-04-10T12:00:19.480Z,10272.00
2024-04-10T12:01:19.446Z,10508.00
2024-04-10T12:02:20.925Z,10760.00
2024-04-10T12:03:19.502Z,11004.00
2024-04-10T12:04:19.518Z,11312.00
2024-04-10T12:05:19.538Z,11764.00
2024-04-10T12:06:19.507Z,12424.00
2024-04-10T12:07:19.352Z,13348.00
2024-04-10T12:08:19.386Z,14444.00
2024-04-10T12:09:19.329Z,15348.00
2024-04-10T12:10:19.325Z,16192.00
2024-04-10T12:11:19.461Z,16864.00
2024-04-10T12:12:19.491Z,17472.00
2024-04-10T12:13:19.286Z,18080.00
2024-04-10T12:14:19.323Z,18560.00
2024-04-10T12:15:19.271Z,18944.00
2024-04-10T12:16:19.281Z,19552.00
2024-04-10T12:17:19.530Z,20576.00
2024-04-10T12:18:19.360Z,39040.00
2024-04-10T12:19:19.310Z,81120.00
2024-04-10T12:20:19.378Z,96864.00
2024-04-10T12:21:19.188Z,97728.00
2024-04-10T12:22:19.180Z,99072.00
2024-04-10T12:23:19.250Z,94816.00
2024-04-10T12:24:19.169Z,86528.00
2024-04-10T12:25:19.150Z,94560.00
2024-04-10T12:26:19.182Z,96000.00
2024-04-10T12:27:19.127Z,83840.00
2024-04-10T12:28:19.116Z,65856.00
2024-04-10T12:29:19.136Z,102688.00
2024-04-10T12:30:19.093Z,103104.00
2024-04-10T12:31:19.088Z,100128.00
2024-04-10T12:32:19.222Z,102272.00